Time;durP1;ratioP1;P1;durP2;ratioP2;P2;SDS_P1;SDS_P2;PMS_P1;PMS_P2;Temp;Humidity;BMP_temperature;BMP_pressure;BME280_temperature;BME280_humidity;BME280_pressure;Samples;Min_cycle;Max_cycle;Signal;HPM_P1;HPM_P2
2023/08/11 00:00:09;;;;;;;3.58;3.03;;;24.60;85.40;;;;;;4958415;28;20544;-91
2023/08/11 00:02:38;;;;;;;3.72;2.85;;;24.60;85.40;;;;;;4958484;28;20049;-90
2023/08/11 00:05:05;;;;;;;4.93;3.83;;;24.50;85.20;;;;;;4959793;28;20031;-91
2023/08/11 00:07:30;;;;;;;3.83;2.92;;;24.60;85.40;;;;;;4977555;28;20090;-90
2023/08/11 00:09:56;;;;;;;3.25;2.80;;;24.50;85.60;;;;;;4977708;28;20469;-92
2023/08/11 00:12:22;;;;;;;4.93;3.20;;;24.50;85.50;;;;;;4977592;28;20485;-92
2023/08/11 00:14:47;;;;;;;3.55;2.80;;;24.40;85.70;;;;;;4977710;28;20060;-92
2023/08/11 00:17:13;;;;;;;3.88;2.38;;;24.40;85.80;;;;;;4975611;28;20023;-91
2023/08/11 00:19:39;;;;;;;3.50;2.65;;;24.40;85.70;;;;;;4967274;28;20500;-91
2023/08/11 00:22:07;;;;;;;4.45;2.97;;;24.30;85.70;;;;;;4977378;28;20106;-90
2023/08/11 00:24:33;;;;;;;5.57;2.88;;;24.30;85.50;;;;;;4976745;28;20031;-90
2023/08/11 00:27:02;;;;;;;6.35;3.33;;;24.30;85.40;;;;;;4960041;28;20030;-91
2023/08/11 00:29:28;;;;;;;5.72;2.33;;;24.30;85.40;;;;;;4974936;28;20034;-92
2023/08/11 00:31:53;;;;;;;5.32;2.88;;;24.30;85.10;;;;;;4962860;28;20075;-91
2023/08/11 00:34:20;;;;;;;3.22;2.35;;;24.20;84.50;;;;;;4961379;28;20110;-92
2023/08/11 00:36:46;;;;;;;4.13;2.33;;;24.20;84.10;;;;;;4959291;28;20414;-91
2023/08/11 00:39:13;;;;;;;4.00;2.05;;;24.20;83.50;;;;;;4959573;28;20122;-91
2023/08/11 00:41:39;;;;;;;3.92;2.50;;;24.20;83.50;;;;;;4977012;28;20030;-91
2023/08/11 00:44:04;;;;;;;3.20;2.30;;;24.20;83.30;;;;;;4977111;28;20181;-91
2023/08/11 00:46:30;;;;;;;4.20;2.47;;;24.30;83.10;;;;;;4976629;28;20486;-90
2023/08/11 00:48:56;;;;;;;2.58;2.05;;;24.30;82.80;;;;;;4965617;28;20113;-90
2023/08/11 00:51:24;;;;;;;3.95;2.08;;;24.30;82.60;;;;;;4964601;28;20390;-93
2023/08/11 00:53:50;;;;;;;4.55;2.10;;;24.30;82.50;;;;;;4962989;28;20031;-93
2023/08/11 00:56:19;;;;;;;1.83;1.45;;;24.20;82.30;;;;;;4964438;28;20027;-92
2023/08/11 00:58:45;;;;;;;2.95;2.45;;;24.30;82.10;;;;;;4972677;28;20110;-92
2023/08/11 01:01:11;;;;;;;3.38;2.20;;;24.20;81.90;;;;;;4969478;28;20024;-92
2023/08/11 01:03:37;;;;;;;4.65;2.22;;;24.20;81.80;;;;;;4956955;28;20035;-92
2023/08/11 01:06:27;;;;;;;3.90;2.28;;;24.30;81.70;;;;;;4956859;29;20047;-93
2023/08/11 01:09:03;;;;;;;3.17;2.40;;;24.30;81.60;;;;;;4965315;28;20026;-93
2023/08/11 01:11:40;;;;;;;4.50;1.95;;;24.30;81.20;;;;;;4965296;28;20019;-92
2023/08/11 01:14:33;;;;;;;3.13;2.00;;;24.30;81.10;;;;;;4976126;28;20035;-93
2023/08/11 01:17:01;;;;;;;2.85;1.95;;;24.30;80.50;;;;;;4976538;28;20052;-92
2023/08/11 01:19:34;;;;;;;2.25;1.88;;;24.20;80.40;;;;;;4970119;28;20027;-93
2023/08/11 01:22:01;;;;;;;4.75;2.50;;;24.20;80.40;;;;;;4967475;28;20039;-91
2023/08/11 01:24:29;;;;;;;3.13;1.67;;;24.20;80.30;;;;;;4972344;28;20393;-90
2023/08/11 01:26:57;;;;;;;3.15;2.03;;;24.20;80.80;;;;;;4956376;29;20023;-91
2023/08/11 01:29:24;;;;;;;2.92;2.45;;;24.20;79.90;;;;;;4964779;28;20409;-91
2023/08/11 01:31:50;;;;;;;2.65;1.98;;;24.20;80.10;;;;;;4966831;28;20019;-91
2023/08/11 01:34:16;;;;;;;2.53;1.70;;;24.20;80.10;;;;;;4975540;28;20137;-92
2023/08/11 01:36:42;;;;;;;5.00;2.03;;;24.20;80.30;;;;;;4975786;28;20127;-93
2023/08/11 01:39:09;;;;;;;3.15;1.85;;;24.30;80.20;;;;;;4958456;28;20185;-94
2023/08/11 01:41:37;;;;;;;3.22;1.65;;;24.30;80.20;;;;;;4975625;28;20109;-94
2023/08/11 01:44:04;;;;;;;4.78;2.47;;;24.20;80.10;;;;;;4975984;28;20499;-92
2023/08/11 01:46:30;;;;;;;3.10;2.30;;;24.20;80.40;;;;;;4964804;28;20351;-92
2023/08/11 01:48:57;;;;;;;3.13;1.92;;;24.20;80.60;;;;;;4959347;28;20042;-92
2023/08/11 01:51:26;;;;;;;2.78;2.15;;;24.20;80.60;;;;;;4966314;28;20026;-91
2023/08/11 01:53:52;;;;;;;2.58;2.05;;;24.10;80.70;;;;;;4958273;28;20051;-89
2023/08/11 01:56:19;;;;;;;3.33;2.20;;;24.00;81.00;;;;;;4975336;28;20105;-90
2023/08/11 01:58:45;;;;;;;3.47;2.00;;;24.00;81.30;;;;;;4973974;28;20078;-92
2023/08/11 02:01:13;;;;;;;2.65;2.10;;;24.00;81.50;;;;;;4975341;28;20425;-92
2023/08/11 02:03:39;;;;;;;2.97;2.15;;;24.00;81.50;;;;;;4958918;28;20118;-92
2023/08/11 02:06:05;;;;;;;2.60;1.90;;;24.10;81.40;;;;;;4946870;29;20450;-92
2023/08/11 02:08:32;;;;;;;4.55;2.13;;;24.10;81.20;;;;;;4970381;28;20098;-91
2023/08/11 02:10:58;;;;;;;4.55;2.25;;;24.10;81.30;;;;;;4974284;28;20037;-92
2023/08/11 02:13:23;;;;;;;2.42;1.95;;;24.10;81.40;;;;;;4975409;28;20027;-92
2023/08/11 02:15:49;;;;;;;3.05;2.03;;;24.10;81.40;;;;;;4969675;28;20466;-82
2023/08/11 02:18:15;;;;;;;4.35;2.05;;;24.10;81.50;;;;;;4970564;28;20038;-82
2023/08/11 02:20:41;;;;;;;6.57;2.20;;;24.10;81.80;;;;;;4967319;28;20460;-84
2023/08/11 02:23:08;;;;;;;3.80;2.20;;;24.10;81.80;;;;;;4972433;28;20034;-84
2023/08/11 02:25:34;;;;;;;3.15;1.77;;;24.10;81.80;;;;;;4972040;28;20025;-84
2023/08/11 02:28:00;;;;;;;3.40;2.05;;;24.00;81.90;;;;;;4967405;28;20039;-84
2023/08/11 02:30:29;;;;;;;4.35;2.00;;;24.00;82.00;;;;;;4947849;28;20089;-83
2023/08/11 02:32:55;;;;;;;4.47;2.08;;;23.90;82.00;;;;;;4973346;28;20034;-84
2023/08/11 02:35:21;;;;;;;3.72;2.17;;;23.90;82.00;;;;;;4973261;28;20034;-82
2023/08/11 02:37:48;;;;;;;4.28;2.47;;;23.90;82.10;;;;;;4958433;28;20481;-82
2023/08/11 02:40:14;;;;;;;6.40;2.17;;;23.90;82.10;;;;;;4968100;28;20539;-82
2023/08/11 02:42:45;;;;;;;2.53;1.77;;;23.90;82.10;;;;;;4970361;28;20089;-81
2023/08/11 02:45:11;;;;;;;3.88;2.10;;;23.90;82.00;;;;;;4955234;28;20394;-82
2023/08/11 02:47:39;;;;;;;3.67;2.03;;;23.90;82.10;;;;;;4970845;28;20026;-82
2023/08/11 02:50:06;;;;;;;4.80;2.20;;;23.90;82.00;;;;;;4956072;28;20394;-82
2023/08/11 02:52:32;;;;;;;3.05;1.95;;;23.80;82.00;;;;;;4961321;28;20029;-83
2023/08/11 02:54:57;;;;;;;2.65;2.03;;;23.80;82.10;;;;;;4958802;28;20110;-83
2023/08/11 02:57:23;;;;;;;3.10;2.08;;;23.80;82.00;;;;;;4970537;28;20035;-83
2023/08/11 02:59:49;;;;;;;3.90;1.98;;;23.80;81.90;;;;;;4974455;28;20041;-83
2023/08/11 03:02:16;;;;;;;3.53;2.10;;;23.80;82.20;;;;;;4947121;28;20110;-83
2023/08/11 03:05:21;;;;;;;2.63;1.98;;;23.80;82.20;;;;;;5143053;23;20415;-86
2023/08/11 03:07:48;;;;;;;3.88;2.35;;;23.80;82.10;;;;;;4966299;28;20070;-87
2023/08/11 03:10:14;;;;;;;4.10;2.03;;;23.70;82.70;;;;;;4943826;28;20395;-89
2023/08/11 03:12:45;;;;;;;4.65;2.58;;;23.70;82.10;;;;;;4979307;28;20086;-88
2023/08/11 03:15:11;;;;;;;4.22;2.22;;;23.70;82.00;;;;;;4937694;28;20024;-89
2023/08/11 03:17:38;;;;;;;3.03;2.15;;;23.60;82.20;;;;;;4964531;28;20034;-84
2023/08/11 03:20:15;;;;;;;2.95;1.50;;;23.60;82.30;;;;;;4968503;28;20045;-83
2023/08/11 03:22:42;;;;;;;2.33;1.33;;;23.60;82.30;;;;;;4979519;28;20066;-83
2023/08/11 03:25:09;;;;;;;3.00;1.85;;;23.50;82.40;;;;;;4973247;28;20035;-87
2023/08/11 03:27:44;;;;;;;2.53;1.70;;;23.50;82.50;;;;;;4978472;28;20022;-83
2023/08/11 03:30:12;;;;;;;4.00;2.20;;;23.50;82.50;;;;;;4971292;28;20042;-86
2023/08/11 03:32:46;;;;;;;2.33;1.70;;;23.50;82.50;;;;;;4986352;28;20377;-86
2023/08/11 03:35:31;;;;;;;2.13;1.48;;;23.50;82.50;;;;;;4984311;28;20026;-86
2023/08/11 03:38:00;;;;;;;1.67;1.58;;;23.60;82.50;;;;;;4961072;28;20019;-84
2023/08/11 03:43:20;;;;;;;2.63;1.70;;;23.60;82.30;;;;;;4992591;23;20062;-83
2023/08/11 03:45:58;;;;;;;2.22;1.52;;;23.60;82.20;;;;;;4996693;28;20495;-85
2023/08/11 03:48:23;;;;;;;2.97;2.00;;;23.60;82.10;;;;;;4992803;28;20061;-86
2023/08/11 03:50:49;;;;;;;2.83;1.70;;;23.60;82.00;;;;;;4980241;28;20061;-86
2023/08/11 03:53:15;;;;;;;4.82;1.77;;;23.60;82.00;;;;;;4997910;28;20030;-86
2023/08/11 03:55:45;;;;;;;3.35;1.83;;;23.50;81.90;;;;;;4997002;28;20030;-86
2023/08/11 03:58:12;;;;;;;2.88;1.30;;;23.50;82.00;;;;;;4992419;28;20169;-88
2023/08/11 04:00:40;;;;;;;3.38;1.95;;;23.50;82.20;;;;;;4971879;28;20042;-89
2023/08/11 04:03:09;;;;;;;1.90;1.65;;;23.50;82.20;;;;;;4967763;28;20053;-83
2023/08/11 04:05:35;;;;;;;2.40;1.60;;;23.40;82.10;;;;;;4992076;28;20019;-83
2023/08/11 04:08:04;;;;;;;2.83;1.45;;;23.40;82.00;;;;;;4978070;28;20457;-83
2023/08/11 04:10:30;;;;;;;2.40;1.73;;;23.40;82.00;;;;;;4964333;28;20033;-83
2023/08/11 04:13:15;;;;;;;2.58;1.70;;;23.50;81.90;;;;;;4979052;28;20030;-83
2023/08/11 04:15:41;;;;;;;2.97;1.45;;;23.40;81.90;;;;;;4996606;28;20038;-83
2023/08/11 04:18:06;;;;;;;2.63;1.70;;;23.40;81.90;;;;;;4997018;28;20465;-83
2023/08/11 04:20:36;;;;;;;3.03;1.42;;;23.40;81.90;;;;;;4979602;28;20030;-83
2023/08/11 04:23:06;;;;;;;3.63;1.60;;;23.40;81.90;;;;;;4969284;28;20034;-84
2023/08/11 04:25:32;;;;;;;3.30;1.85;;;23.50;81.70;;;;;;4977797;28;20027;-83
2023/08/11 04:28:30;;;;;;;1.88;1.42;;;23.40;81.60;;;;;;4988891;28;20023;-83
2023/08/11 04:30:56;;;;;;;3.17;1.60;;;23.40;81.80;;;;;;4979033;28;20024;-84
2023/08/11 04:33:22;;;;;;;2.17;1.50;;;23.40;81.70;;;;;;4995150;28;20049;-84
2023/08/11 04:35:49;;;;;;;1.85;1.27;;;23.40;81.50;;;;;;4996220;28;20031;-84
2023/08/11 04:38:15;;;;;;;1.90;1.38;;;23.40;81.50;;;;;;4995420;28;20488;-83
2023/08/11 04:40:40;;;;;;;1.70;1.13;;;23.40;82.00;;;;;;4996307;28;20042;-83
2023/08/11 04:43:06;;;;;;;2.67;1.35;;;23.40;81.40;;;;;;4975841;28;20129;-82
2023/08/11 04:45:32;;;;;;;4.13;1.40;;;23.40;81.50;;;;;;4986493;23;20073;-82
2023/08/11 04:47:58;;;;;;;2.28;1.35;;;23.40;81.70;;;;;;4976461;28;20030;-82
2023/08/11 04:50:23;;;;;;;2.90;1.60;;;23.40;81.50;;;;;;4976447;28;20031;-82
2023/08/11 04:52:49;;;;;;;1.55;1.40;;;23.40;81.30;;;;;;4975904;28;20114;-81
2023/08/11 04:55:15;;;;;;;2.65;1.65;;;23.40;81.20;;;;;;4976216;28;20027;-85
2023/08/11 04:57:41;;;;;;;2.30;1.30;;;23.40;81.20;;;;;;4977153;28;20387;-85
2023/08/11 05:00:13;;;;;;;2.92;1.67;;;23.40;81.10;;;;;;4965444;28;20034;-86
2023/08/11 05:02:41;;;;;;;1.45;1.35;;;23.40;80.90;;;;;;4976319;28;20047;-82
2023/08/11 05:05:08;;;;;;;1.75;1.30;;;23.40;80.80;;;;;;4975535;28;20538;-82
2023/08/11 05:07:34;;;;;;;3.83;1.60;;;23.40;80.60;;;;;;4976609;28;20405;-82
2023/08/11 05:09:59;;;;;;;1.95;1.65;;;23.50;80.50;;;;;;4972575;28;20031;-81
2023/08/11 05:12:25;;;;;;;2.13;1.45;;;23.50;80.40;;;;;;4975864;28;20034;-82
2023/08/11 05:14:51;;;;;;;1.77;1.17;;;23.50;80.50;;;;;;4976040;28;20038;-85
2023/08/11 05:17:17;;;;;;;1.77;1.30;;;23.50;80.50;;;;;;4976489;28;20122;-85
2023/08/11 05:19:42;;;;;;;2.28;1.60;;;23.50;80.20;;;;;;4975289;28;20070;-85
2023/08/11 05:22:08;;;;;;;2.67;1.65;;;23.50;80.10;;;;;;4975690;28;20027;-86
2023/08/11 05:24:34;;;;;;;3.22;1.38;;;23.50;80.20;;;;;;4966005;28;20034;-86
2023/08/11 05:26:59;;;;;;;1.65;1.25;;;23.50;80.20;;;;;;4963498;28;20031;-83
2023/08/11 05:29:26;;;;;;;4.78;1.40;;;23.50;80.10;;;;;;4966250;28;20452;-83
2023/08/11 05:31:51;;;;;;;2.08;1.52;;;23.50;80.10;;;;;;4958911;28;20118;-82
2023/08/11 05:34:17;;;;;;;2.40;1.55;;;23.50;79.80;;;;;;4969427;28;20110;-84
2023/08/11 05:36:43;;;;;;;3.13;2.03;;;23.60;79.80;;;;;;4952385;28;20078;-83
2023/08/11 05:39:10;;;;;;;5.78;1.90;;;23.60;79.80;;;;;;4973338;28;20027;-82
2023/08/11 05:41:36;;;;;;;3.30;1.88;;;23.60;79.80;;;;;;4967294;28;20051;-82
2023/08/11 05:44:03;;;;;;;6.28;2.50;;;23.60;79.80;;;;;;4965813;28;20074;-81
2023/08/11 05:46:30;;;;;;;3.10;2.08;;;23.60;79.60;;;;;;4939704;28;20051;-81
2023/08/11 05:48:56;;;;;;;5.13;2.95;;;23.60;79.60;;;;;;4955609;29;20027;-81
2023/08/11 05:51:22;;;;;;;7.60;3.13;;;23.60;79.70;;;;;;4965481;28;20023;-82
2023/08/11 05:53:48;;;;;;;6.03;3.58;;;23.60;79.40;;;;;;4991223;28;20033;-82
2023/08/11 05:56:14;;;;;;;8.88;3.60;;;23.70;79.30;;;;;;4975789;28;20040;-81
2023/08/11 05:58:40;;;;;;;5.25;2.92;;;23.70;79.20;;;;;;4975441;28;20089;-82
2023/08/11 06:01:06;;;;;;;5.32;2.88;;;23.70;79.30;;;;;;4975324;28;20071;-83
2023/08/11 06:03:32;;;;;;;4.15;2.65;;;23.70;79.30;;;;;;4974919;28;20388;-84
2023/08/11 06:06:04;;;;;;;7.60;3.22;;;23.70;79.00;;;;;;4975175;28;20110;-82
2023/08/11 06:08:30;;;;;;;7.07;3.08;;;23.80;79.10;;;;;;4975412;28;20015;-81
2023/08/11 06:10:56;;;;;;;5.43;2.15;;;23.80;79.00;;;;;;4975185;28;20070;-81
2023/08/11 06:13:23;;;;;;;3.97;2.45;;;23.90;78.90;;;;;;4954814;28;20086;-82
2023/08/11 06:15:49;;;;;;;5.18;1.88;;;23.90;79.00;;;;;;4974701;28;20109;-81
2023/08/11 06:18:16;;;;;;;3.17;1.83;;;24.00;78.80;;;;;;4976364;28;20085;-80
2023/08/11 06:20:42;;;;;;;3.08;1.77;;;23.90;78.80;;;;;;4975127;28;20034;-81
2023/08/11 06:23:08;;;;;;;2.42;1.70;;;24.00;78.50;;;;;;4974789;28;20034;-80
2023/08/11 06:25:34;;;;;;;2.33;1.30;;;24.00;78.40;;;;;;4957299;28;20041;-81
2023/08/11 06:28:00;;;;;;;3.80;1.50;;;24.00;78.50;;;;;;4973494;28;20031;-80
2023/08/11 06:30:28;;;;;;;2.88;1.30;;;24.10;78.40;;;;;;4974165;28;20102;-81
2023/08/11 06:32:53;;;;;;;2.83;1.30;;;24.10;78.30;;;;;;4966429;28;20491;-81
2023/08/11 06:35:19;;;;;;;2.38;1.10;;;24.10;78.10;;;;;;4974470;28;20101;-81
2023/08/11 06:37:45;;;;;;;1.77;1.23;;;24.20;78.20;;;;;;4974807;28;20077;-81
2023/08/11 06:40:11;;;;;;;2.53;1.42;;;24.20;78.00;;;;;;4974887;28;20031;-81
2023/08/11 06:42:38;;;;;;;4.57;1.70;;;24.30;77.90;;;;;;4960844;28;20031;-81
2023/08/11 06:45:04;;;;;;;3.28;1.40;;;24.30;78.30;;;;;;4955114;29;20051;-81
2023/08/11 06:47:31;;;;;;;3.22;1.30;;;24.30;77.70;;;;;;4955537;29;20078;-81
2023/08/11 06:49:57;;;;;;;1.52;1.02;;;24.40;77.80;;;;;;4955585;29;20094;-81
2023/08/11 06:52:23;;;;;;;3.65;1.30;;;24.40;77.90;;;;;;4966425;28;20031;-81
2023/08/11 06:54:49;;;;;;;1.85;1.38;;;24.50;77.50;;;;;;4974587;28;20482;-80
2023/08/11 06:57:18;;;;;;;2.35;1.50;;;24.50;77.30;;;;;;4974125;28;20109;-81
2023/08/11 06:59:44;;;;;;;2.10;1.08;;;24.50;77.10;;;;;;4974669;28;20027;-81
2023/08/11 07:02:09;;;;;;;2.67;1.33;;;24.60;77.00;;;;;;4973584;28;20050;-80
2023/08/11 07:04:35;;;;;;;1.75;1.20;;;24.60;76.50;;;;;;4974473;28;20035;-81
2023/08/11 07:07:01;;;;;;;1.80;1.10;;;24.60;76.90;;;;;;4972892;28;20027;-81
2023/08/11 07:09:27;;;;;;;2.15;0.90;;;24.70;77.10;;;;;;4974607;28;20019;-80
2023/08/11 07:11:52;;;;;;;2.72;0.90;;;24.70;77.10;;;;;;4973857;28;20031;-81
2023/08/11 07:14:18;;;;;;;1.77;1.00;;;24.80;76.90;;;;;;4974508;28;20027;-81
2023/08/11 07:16:43;;;;;;;0.82;0.82;;;24.80;76.50;;;;;;4974420;28;20052;-80
2023/08/11 07:19:09;;;;;;;1.23;1.10;;;24.90;76.20;;;;;;4974379;28;20035;-80
2023/08/11 07:21:35;;;;;;;1.33;1.10;;;24.90;76.10;;;;;;4973754;28;20035;-81
2023/08/11 07:24:01;;;;;;;2.38;1.10;;;25.00;76.10;;;;;;4974466;28;20035;-81
2023/08/11 07:26:26;;;;;;;2.10;1.30;;;25.10;76.10;;;;;;4974488;28;20106;-81
2023/08/11 07:28:52;;;;;;;2.38;1.20;;;25.10;76.10;;;;;;4974130;28;20094;-81
2023/08/11 07:31:17;;;;;;;1.27;1.10;;;25.20;75.60;;;;;;4972744;28;20077;-80
2023/08/11 07:33:43;;;;;;;1.08;0.82;;;25.30;75.00;;;;;;4971729;28;20125;-81
2023/08/11 07:36:09;;;;;;;1.05;0.80;;;25.30;74.80;;;;;;4974393;28;20030;-81
2023/08/11 07:38:36;;;;;;;2.83;1.02;;;25.40;74.90;;;;;;4974237;28;20030;-81
2023/08/11 07:41:02;;;;;;;4.85;1.30;;;25.40;74.70;;;;;;4973861;28;20089;-81
2023/08/11 07:43:27;;;;;;;5.60;1.33;;;25.50;74.70;;;;;;4955982;28;20039;-81
2023/08/11 07:45:53;;;;;;;1.38;0.90;;;25.60;74.40;;;;;;4954526;29;20047;-80
2023/08/11 07:48:19;;;;;;;1.65;1.42;;;25.60;74.50;;;;;;4954818;29;20034;-81
2023/08/11 07:50:45;;;;;;;1.42;1.15;;;25.70;74.50;;;;;;4954335;29;20439;-80
2023/08/11 07:53:11;;;;;;;1.60;1.20;;;25.80;74.60;;;;;;4954288;28;20058;-81
2023/08/11 07:55:37;;;;;;;1.10;0.90;;;25.80;74.60;;;;;;4954334;29;20074;-80
2023/08/11 07:58:03;;;;;;;1.45;0.98;;;25.80;74.50;;;;;;4954584;29;20418;-81
2023/08/11 08:00:29;;;;;;;1.60;1.20;;;25.90;74.70;;;;;;4964066;28;20055;-81
2023/08/11 08:02:55;;;;;;;1.35;1.10;;;25.90;74.80;;;;;;4972652;28;20116;-80
2023/08/11 08:05:21;;;;;;;1.25;1.02;;;26.00;74.90;;;;;;4973256;28;20041;-80
2023/08/11 08:07:48;;;;;;;3.60;1.33;;;26.00;74.30;;;;;;4974342;28;20142;-81
2023/08/11 08:10:14;;;;;;;1.52;1.35;;;26.10;74.90;;;;;;4977505;28;20035;-81
2023/08/11 08:12:43;;;;;;;1.15;1.00;;;26.20;74.70;;;;;;4965628;28;20449;-81
2023/08/11 08:15:10;;;;;;;1.75;1.17;;;26.30;74.20;;;;;;4957640;29;20039;-81
2023/08/11 08:17:36;;;;;;;1.25;1.00;;;26.30;74.20;;;;;;4957596;29;20477;-81
2023/08/11 08:20:13;;;;;;;1.30;1.00;;;26.40;74.00;;;;;;4964827;28;20496;-81
2023/08/11 08:22:40;;;;;;;2.28;1.00;;;26.50;74.30;;;;;;4976951;28;20034;-81
2023/08/11 08:25:06;;;;;;;1.52;0.90;;;26.60;73.10;;;;;;4977163;28;20038;-82
2023/08/11 08:27:34;;;;;;;3.13;1.20;;;26.60;73.40;;;;;;4959824;28;20081;-81
2023/08/11 08:29:59;;;;;;;4.47;1.25;;;26.70;73.30;;;;;;4976956;28;20034;-81
2023/08/11 08:32:25;;;;;;;1.27;0.90;;;26.70;72.80;;;;;;4975958;28;20065;-81
2023/08/11 08:34:51;;;;;;;4.07;1.45;;;26.80;73.00;;;;;;4977060;28;20035;-81
2023/08/11 08:37:19;;;;;;;2.42;1.05;;;26.80;72.50;;;;;;4977281;28;20102;-80
2023/08/11 08:39:48;;;;;;;2.03;1.33;;;26.90;72.80;;;;;;4989939;28;20030;-81
2023/08/11 08:42:14;;;;;;;3.17;1.13;;;26.90;73.10;;;;;;4990038;28;20023;-77
2023/08/11 08:44:42;;;;;;;1.80;1.25;;;27.00;72.60;;;;;;4977036;28;20139;-82
2023/08/11 08:47:09;;;;;;;1.92;1.15;;;27.00;72.30;;;;;;4942842;28;20082;-80
2023/08/11 08:49:38;;;;;;;1.45;1.02;;;27.10;71.70;;;;;;4940145;29;20083;-80
2023/08/11 08:52:05;;;;;;;2.90;1.10;;;27.20;71.90;;;;;;4957016;28;20033;-80
2023/08/11 08:54:32;;;;;;;2.28;1.05;;;27.20;71.90;;;;;;4957061;29;20556;-80
2023/08/11 08:57:00;;;;;;;1.02;0.90;;;27.30;72.00;;;;;;4986656;28;20049;-80
2023/08/11 08:59:26;;;;;;;2.00;1.25;;;27.40;71.90;;;;;;4992378;28;20026;-80
2023/08/11 09:01:53;;;;;;;1.88;1.30;;;27.50;71.40;;;;;;4974172;28;20142;-80
2023/08/11 09:04:20;;;;;;;1.65;1.05;;;27.50;70.90;;;;;;4956662;29;20035;-80
2023/08/11 09:06:47;;;;;;;1.85;1.30;;;27.60;71.10;;;;;;4956581;29;20405;-80
2023/08/11 09:09:12;;;;;;;1.58;1.10;;;27.60;69.50;;;;;;4956808;28;20038;-80
2023/08/11 09:11:39;;;;;;;3.70;1.30;;;27.70;70.00;;;;;;4957222;29;20039;-80
2023/08/11 09:14:06;;;;;;;1.42;1.30;;;27.80;70.40;;;;;;4973317;28;20038;-81
2023/08/11 09:16:37;;;;;;;1.63;1.10;;;27.90;69.60;;;;;;4976039;28;20085;-80
2023/08/11 09:19:10;;;;;;;1.73;1.30;;;28.00;69.60;;;;;;4975067;28;20031;-80
2023/08/11 09:21:36;;;;;;;1.75;1.20;;;28.00;69.30;;;;;;4966615;28;20030;-80
2023/08/11 09:24:02;;;;;;;1.48;0.90;;;28.10;69.50;;;;;;4995387;28;20045;-80
2023/08/11 09:26:28;;;;;;;1.10;1.00;;;28.30;69.70;;;;;;4995166;28;20126;-80
2023/08/11 09:28:55;;;;;;;1.05;0.80;;;28.40;68.90;;;;;;4995587;28;20125;-81
2023/08/11 09:31:24;;;;;;;1.40;1.17;;;28.50;68.80;;;;;;4976319;28;20113;-81
2023/08/11 09:33:52;;;;;;;1.75;1.05;;;28.50;69.20;;;;;;4975921;28;20133;-82
2023/08/11 09:36:19;;;;;;;1.25;1.10;;;28.70;69.70;;;;;;4963068;28;20034;-82
2023/08/11 09:38:45;;;;;;;1.63;1.30;;;28.80;68.80;;;;;;4994575;28;20380;-82
2023/08/11 09:41:12;;;;;;;1.10;1.00;;;28.80;68.50;;;;;;4993093;28;20129;-81
2023/08/11 09:43:38;;;;;;;1.42;1.00;;;28.90;68.60;;;;;;4969993;28;20031;-82
2023/08/11 09:46:04;;;;;;;1.70;1.20;;;29.00;68.50;;;;;;4975128;28;20389;-82
2023/08/11 09:48:31;;;;;;;1.23;1.10;;;29.10;68.10;;;;;;4975577;28;20058;-82
2023/08/11 09:50:57;;;;;;;2.17;1.05;;;29.10;67.80;;;;;;4975757;28;20401;-84
2023/08/11 09:53:24;;;;;;;1.50;1.00;;;29.30;67.60;;;;;;4974769;28;20377;-84
2023/08/11 09:55:54;;;;;;;1.80;1.10;;;29.30;67.60;;;;;;4984978;28;20031;-84
2023/08/11 09:58:26;;;;;;;1.27;1.02;;;29.40;67.40;;;;;;4994861;28;20061;-85
2023/08/11 10:00:54;;;;;;;0.90;0.80;;;29.50;66.70;;;;;;4977034;28;20085;-85
2023/08/11 10:03:26;;;;;;;1.05;0.90;;;29.60;66.20;;;;;;4975043;28;20034;-85
2023/08/11 10:05:54;;;;;;;1.20;1.10;;;29.60;65.60;;;;;;4975794;28;20051;-85
2023/08/11 10:08:22;;;;;;;1.27;1.13;;;29.70;65.60;;;;;;4975463;28;20027;-84
2023/08/11 10:10:48;;;;;;;1.50;0.90;;;29.90;65.30;;;;;;4975466;28;20034;-85
2023/08/11 10:13:25;;;;;;;1.55;1.20;;;30.00;65.60;;;;;;4975061;28;20038;-85
2023/08/11 10:15:53;;;;;;;1.60;1.30;;;30.10;63.60;;;;;;4957867;28;20030;-85
2023/08/11 10:18:20;;;;;;;1.30;1.10;;;30.20;63.70;;;;;;4975560;28;20031;-85
2023/08/11 10:20:50;;;;;;;2.85;1.00;;;30.30;63.60;;;;;;4975194;28;20038;-84
2023/08/11 10:23:19;;;;;;;1.67;1.13;;;30.50;63.70;;;;;;4974917;28;20023;-85
2023/08/11 10:25:45;;;;;;;0.83;0.80;;;30.60;63.40;;;;;;4975080;28;20019;-85
2023/08/11 10:28:12;;;;;;;1.85;1.17;;;30.70;62.60;;;;;;4974987;28;20026;-85
2023/08/11 10:30:40;;;;;;;1.50;1.10;;;30.80;61.80;;;;;;4975859;28;20402;-86
2023/08/11 10:33:07;;;;;;;1.25;1.05;;;30.90;61.70;;;;;;4974848;28;20027;-85
2023/08/11 10:35:50;;;;;;;3.75;1.02;;;31.00;61.70;;;;;;4974627;28;20023;-85
2023/08/11 10:38:30;;;;;;;1.05;0.95;;;31.10;60.40;;;;;;4957348;28;20038;-85
2023/08/11 10:40:58;;;;;;;;;;;31.20;61.30;;;;;;4974827;28;20038;-84
2023/08/11 10:43:33;;;;;;;1.30;1.20;;;31.30;61.60;;;;;;4974576;28;20478;-85
2023/08/11 10:46:21;;;;;;;1.70;0.98;;;31.30;59.90;;;;;;4977955;28;20062;-84
2023/08/11 10:48:47;;;;;;;2.42;1.40;;;31.30;60.60;;;;;;4986150;28;20572;-84
2023/08/11 10:51:30;;;;;;;1.20;1.10;;;31.50;61.50;;;;;;4973092;28;20050;-84
2023/08/11 10:54:23;;;;;;;2.53;1.13;;;31.60;60.90;;;;;;4974333;28;20027;-84
2023/08/11 10:56:50;;;;;;;1.40;1.10;;;31.70;62.30;;;;;;4944947;29;20058;-84
2023/08/11 10:59:18;;;;;;;2.13;1.20;;;31.80;61.80;;;;;;4960998;28;20026;-84
2023/08/11 11:01:46;;;;;;;1.15;1.00;;;31.90;61.80;;;;;;4974245;28;20073;-84
2023/08/11 11:04:12;;;;;;;1.30;1.13;;;32.00;61.10;;;;;;4974199;28;20477;-84
2023/08/11 11:06:39;;;;;;;0.95;0.80;;;32.00;60.80;;;;;;4972528;28;20031;-84
2023/08/11 11:09:07;;;;;;;1.40;1.17;;;32.10;61.20;;;;;;4972025;28;20596;-84
2023/08/11 11:11:33;;;;;;;6.35;1.40;;;32.20;61.50;;;;;;4973705;28;20097;-84
2023/08/11 11:13:59;;;;;;;2.33;1.30;;;32.40;60.90;;;;;;4974649;28;20114;-84
2023/08/11 11:16:26;;;;;;;2.42;1.20;;;32.50;59.60;;;;;;4974605;28;20054;-84
2023/08/11 11:18:52;;;;;;;3.20;1.10;;;32.60;59.00;;;;;;4974421;28;20073;-84
2023/08/11 11:21:19;;;;;;;2.38;1.23;;;32.80;59.40;;;;;;4975102;28;20034;-84
2023/08/11 11:23:49;;;;;;;1.83;1.00;;;32.90;59.20;;;;;;4974052;28;20085;-84
2023/08/11 11:26:19;;;;;;;;;;;33.00;58.00;;;;;;4982366;28;20507;-84
2023/08/11 11:28:45;;;;;;;1.77;1.00;;;33.10;57.60;;;;;;4982111;28;20371;-84
2023/08/11 11:31:11;;;;;;;1.63;1.00;;;33.30;58.30;;;;;;4978411;28;20134;-84
2023/08/11 11:33:37;;;;;;;1.20;0.95;;;33.50;57.80;;;;;;4992187;28;20038;-84
2023/08/11 11:36:03;;;;;;;0.95;0.73;;;33.60;57.00;;;;;;4976287;28;20384;-84
2023/08/11 11:38:28;;;;;;;3.60;1.05;;;33.90;56.60;;;;;;4977917;28;20276;-84
2023/08/11 11:40:54;;;;;;;4.95;1.23;;;34.20;56.50;;;;;;4986587;28;20207;-84
2023/08/11 11:43:20;;;;;;;4.40;1.75;;;34.40;55.50;;;;;;4981810;28;20050;-83
2023/08/11 11:45:48;;;;;;;3.35;1.17;;;34.70;56.40;;;;;;4988203;28;20535;-84
2023/08/11 11:48:13;;;;;;;1.23;1.00;;;34.90;56.20;;;;;;4986924;28;20027;-84
2023/08/11 11:50:40;;;;;;;2.00;1.33;;;35.10;54.30;;;;;;4976238;28;20031;-84
2023/08/11 11:53:06;;;;;;;3.58;1.15;;;35.40;54.20;;;;;;4975436;28;20023;-84
2023/08/11 11:55:32;;;;;;;2.10;1.10;;;35.60;53.10;;;;;;4984657;28;20030;-84
2023/08/11 11:57:57;;;;;;;1.48;1.10;;;35.70;52.90;;;;;;4984605;28;20048;-84
2023/08/11 12:00:25;;;;;;;3.45;1.10;;;35.90;52.90;;;;;;4953168;28;20549;-85
2023/08/11 12:02:51;;;;;;;2.10;1.30;;;36.20;52.50;;;;;;4973566;28;20040;-85
2023/08/11 12:05:17;;;;;;;5.85;1.70;;;36.30;52.50;;;;;;4977395;28;20035;-84
2023/08/11 12:07:43;;;;;;;4.20;1.50;;;36.50;52.60;;;;;;4977357;28;20027;-84
2023/08/11 12:10:09;;;;;;;6.18;1.95;;;36.70;52.20;;;;;;4970516;28;20066;-84
2023/08/11 12:12:35;;;;;;;2.50;1.15;;;36.80;52.10;;;;;;4981603;28;20050;-84
2023/08/11 12:15:08;;;;;;;0.77;0.77;;;36.90;51.10;;;;;;4982443;28;20026;-84
2023/08/11 12:17:35;;;;;;;2.42;0.93;;;37.00;51.70;;;;;;4973593;28;20043;-84
2023/08/11 12:20:06;;;;;;;1.33;0.93;;;37.10;51.20;;;;;;4974377;28;20094;-84
2023/08/11 12:22:35;;;;;;;2.10;0.98;;;37.10;50.10;;;;;;4981695;28;20027;-84
2023/08/11 12:25:01;;;;;;;1.42;1.08;;;37.20;50.20;;;;;;4987124;28;20101;-84
2023/08/11 12:27:28;;;;;;;1.75;1.10;;;37.30;49.30;;;;;;4957744;28;20548;-84
2023/08/11 12:29:54;;;;;;;1.35;0.95;;;37.40;49.50;;;;;;4974512;28;20030;-84
2023/08/11 12:32:19;;;;;;;2.33;1.20;;;37.40;49.70;;;;;;4982444;28;20026;-82
2023/08/11 12:34:45;;;;;;;1.73;1.30;;;37.50;48.40;;;;;;4980801;28;20066;-82
2023/08/11 12:37:14;;;;;;;4.03;1.08;;;37.60;48.40;;;;;;4983130;28;20467;-82
2023/08/11 12:39:40;;;;;;;1.60;1.10;;;37.50;48.30;;;;;;4988350;28;20034;-82
2023/08/11 12:42:05;;;;;;;1.38;1.10;;;37.50;48.90;;;;;;4984440;28;20014;-82
2023/08/11 12:44:31;;;;;;;1.13;1.02;;;37.50;48.80;;;;;;4980492;28;20026;-82
2023/08/11 12:46:57;;;;;;;1.90;1.05;;;37.60;48.70;;;;;;4973412;28;20034;-83
2023/08/11 12:49:22;;;;;;;1.13;1.02;;;37.70;48.10;;;;;;4981853;28;20029;-82
2023/08/11 12:51:51;;;;;;;1.25;0.90;;;37.60;47.00;;;;;;4991244;28;20276;-82